Ely, MN

6:50 AM CDT on August 20, 2014 (GMT -0500)
Cook Municipal | Change Station
CLOSE
Current Station
Airport
Location: Cook,
Elevation: 1325 ft
Nearby Weather Stations
Active Advisory: Dense Fog Advisory

Elev 1325 ft 47.82 °N, 92.69 °W | Updated 15 minutes ago

Fog
Fog
50 °F
Feels Like 50 °F
N
0
Wind Variable Wind from North

Today
High -- | Low -- °F
--% Chance of Precip.
Yesterday
High -- | Low -- °F
Precip. -- in
6:09 AM 8:11 PM
Waning Crescent, 22% visible
Pressure 29.88 in
Visibility 0.2 miles
Clouds Overcast 100 ft
Dew Point 50 °F
Humidity 100%
Rainfall 0.00 in
Snow Depth Not available.
UV 0 out of 12
Pollen 8.10 out of 12
Air Quality Not available.
Flu Activity Not available.
METAR KCQM 201135Z AUTO 00000KT M1/4SM FG OVC001 10/10 A2988 RMK AO2

More Conditions Fewer Conditions

Pressure 29.88 in
Visibility 0.2 miles
Clouds Overcast 100 ft
Dew Point 50 °F
Humidity 100%
Rainfall 0.00 in
Snow Depth Not available.
UV 0 out of 12
Pollen 8.10 out of 12
Air Quality Not available.
Flu Activity Not available.
METAR KCQM 201135Z AUTO 00000KT M1/4SM FG OVC001 10/10 A2988 RMK AO2

More Conditions Fewer Conditions

10-Day Weather Forecast

Almanac

Astronomy

Aug. 20, 2014 Rise Set
Actual Time 6:09 AM CDT 8:11 PM CDT
Civil Twilight 5:35 AM CDT 8:44 PM CDT
Nautical Twilight 4:54 AM CDT 9:25 PM CDT
Astronomical Twilight 4:08 AM CDT 10:11 PM CDT
Moon 1:41 AM CDT 5:04 PM CDT
Length of Visible Light 15h 08m
Length of Day
14h 01m
Tomorrow will be 3m 12s shorter.
Waning Crescent, 22% of the Moon is Illuminated
Today
Waning Crescent
Aug 25
New
Sep 2
First Quarter
Sep 8
Full
Sep 15
Last Quarter

Today's Extremes

State Highs State Lows

Community

WunderPhotos

Upload Photos

1,745,611 photos uploaded!

WunderBlogs® & News

By Dr. Jeff Masters
Director of Meteorology, Weather Underground
By Kari Strenfel
Meteorologist, Weather Underground
By Christopher C. Burt
Weather Historian, Weather Underground
August 20, 2014
August 20, 2014
August 20, 2014

Nearby

Snow Depth

Station Depth Elevation
No new snow has been reported.

Earthquake Activity

City Distance Mag. Time & Date
No recent earthquake activity has been reported nearby.
Minimum magnitude displayed is 2.5.

Coastal Water Temperatures

Place Temperature
No Stations Reporting

Nearby Weather Stations